CheckWX is a tool to help pilots better visualize weather data.  It is not intended as a substitute for an official pre-flight weather briefing.

13:22:05 UTC

KDDH METAR
William H Morse State Airport
Bennington, Vermont, USA
Current

28 mins ago

KDDH 211254Z AUTO 00000KT 10SM CLR 15/11 A3026 RMK AO2 SLP246 T01500111
Observed
Sep-21 @ 12:54 UTC
Visibility
10 SM
Flight Rules
VFR
Cloud Levels
  • Clear skies
Temperature
15°C / 59°F
Dewpoint
11°C / 52°F
Humidity
77%
Altimeter
30.26" Hg
Pressure
1024.72 hPa
Previous

1 hour ago

KDDH 211154Z AUTO 00000KT 10SM CLR 11/08 A3025 RMK AO2 SLP244 T01060083 10106 20067 51011
Observed
Sep-21 @ 11:54 UTC
Visibility
10 SM
Flight Rules
VFR
Cloud Levels
  • Clear skies
Temperature
11°C / 52°F
Dewpoint
C / 46°F
Humidity
82%
Altimeter
30.25" Hg
Pressure
1024.42 hPa
Previous

2 hours ago

KDDH 211054Z AUTO 00000KT 10SM CLR 07/06 A3024 RMK AO2 SLP241 T00720056
Observed
Sep-21 @ 10:54 UTC
Visibility
10 SM
Flight Rules
VFR
Cloud Levels
  • Clear skies
Temperature
C / 45°F
Dewpoint
C / 43°F
Humidity
93%
Altimeter
30.24" Hg
Pressure
1024.02 hPa